sensor_id;sensor_type;location;lat;lon;timestamp;temperature;humidity
27978;DHT22;15314;49.248;6.968;2024-03-06T00:00:17;5.40;99.90
27978;DHT22;15314;49.248;6.968;2024-03-06T00:01:36;5.40;99.90
27978;DHT22;15314;49.248;6.968;2024-03-06T00:02:56;5.40;99.90
27978;DHT22;15314;49.248;6.968;2024-03-06T00:04:15;5.50;99.90
27978;DHT22;15314;49.248;6.968;2024-03-06T00:05:34;5.50;99.90
27978;DHT22;15314;49.248;6.968;2024-03-06T00:06:53;5.40;99.90
27978;DHT22;15314;49.248;6.968;2024-03-06T00:08:14;5.40;99.90
27978;DHT22;15314;49.248;6.968;2024-03-06T00:09:36;5.40;99.90
27978;DHT22;15314;49.248;6.968;2024-03-06T00:10:55;5.40;99.90
27978;DHT22;15314;49.248;6.968;2024-03-06T00:12:16;5.50;99.90
27978;DHT22;15314;49.248;6.968;2024-03-06T00:13:35;5.50;99.90
27978;DHT22;15314;49.248;6.968;2024-03-06T00:14:55;5.40;99.90
27978;DHT22;15314;49.248;6.968;2024-03-06T00:16:14;5.50;99.90
27978;DHT22;15314;49.248;6.968;2024-03-06T00:17:34;5.50;99.90
27978;DHT22;15314;49.248;6.968;2024-03-06T00:18:53;5.30;99.90
27978;DHT22;15314;49.248;6.968;2024-03-06T00:20:12;5.40;99.90
27978;DHT22;15314;49.248;6.968;2024-03-06T00:21:33;5.40;99.90
27978;DHT22;15314;49.248;6.968;2024-03-06T00:22:52;5.50;99.90
27978;DHT22;15314;49.248;6.968;2024-03-06T00:24:15;5.40;99.90
27978;DHT22;15314;49.248;6.968;2024-03-06T00:25:34;5.50;99.90
27978;DHT22;15314;49.248;6.968;2024-03-06T00:26:53;5.40;99.90
27978;DHT22;15314;49.248;6.968;2024-03-06T00:28:12;5.60;99.90
27978;DHT22;15314;49.248;6.968;2024-03-06T00:29:33;5.40;99.90
27978;DHT22;15314;49.248;6.968;2024-03-06T00:30:55;5.40;99.90
27978;DHT22;15314;49.248;6.968;2024-03-06T00:32:14;5.40;99.90
27978;DHT22;15314;49.248;6.968;2024-03-06T00:33:35;5.40;99.90
27978;DHT22;15314;49.248;6.968;2024-03-06T00:34:54;5.40;99.90
27978;DHT22;15314;49.248;6.968;2024-03-06T00:36:14;5.50;99.90
27978;DHT22;15314;49.248;6.968;2024-03-06T00:37:33;5.40;99.90
27978;DHT22;15314;49.248;6.968;2024-03-06T00:38:52;5.50;99.90
27978;DHT22;15314;49.248;6.968;2024-03-06T00:40:12;5.40;99.90
27978;DHT22;15314;49.248;6.968;2024-03-06T00:41:31;5.40;99.90
27978;DHT22;15314;49.248;6.968;2024-03-06T00:42:51;5.40;99.90
27978;DHT22;15314;49.248;6.968;2024-03-06T00:44:10;5.40;99.90
27978;DHT22;15314;49.248;6.968;2024-03-06T00:45:29;5.50;99.90
27978;DHT22;15314;49.248;6.968;2024-03-06T00:46:49;5.60;99.90
27978;DHT22;15314;49.248;6.968;2024-03-06T00:48:08;5.40;99.90
27978;DHT22;15314;49.248;6.968;2024-03-06T00:49:27;5.40;99.90
27978;DHT22;15314;49.248;6.968;2024-03-06T00:50:46;5.40;99.90
27978;DHT22;15314;49.248;6.968;2024-03-06T00:52:06;5.40;99.90
27978;DHT22;15314;49.248;6.968;2024-03-06T00:53:25;5.50;99.90
27978;DHT22;15314;49.248;6.968;2024-03-06T00:54:44;5.30;99.90
27978;DHT22;15314;49.248;6.968;2024-03-06T00:56:04;5.40;99.90
27978;DHT22;15314;49.248;6.968;2024-03-06T00:57:23;5.40;99.90
27978;DHT22;15314;49.248;6.968;2024-03-06T00:58:42;5.40;99.90
27978;DHT22;15314;49.248;6.968;2024-03-06T01:00:05;5.40;99.90
27978;DHT22;15314;49.248;6.968;2024-03-06T01:01:29;5.40;99.90
27978;DHT22;15314;49.248;6.968;2024-03-06T01:02:48;5.40;99.90
27978;DHT22;15314;49.248;6.968;2024-03-06T01:04:08;5.60;99.90
27978;DHT22;15314;49.248;6.968;2024-03-06T01:05:27;5.50;99.90
27978;DHT22;15314;49.248;6.968;2024-03-06T01:06:46;5.40;99.90
27978;DHT22;15314;49.248;6.968;2024-03-06T01:08:07;5.40;99.90
27978;DHT22;15314;49.248;6.968;2024-03-06T01:09:26;5.50;99.90
27978;DHT22;15314;49.248;6.968;2024-03-06T01:10:46;5.50;99.90
27978;DHT22;15314;49.248;6.968;2024-03-06T01:12:05;5.50;99.90
27978;DHT22;15314;49.248;6.968;2024-03-06T01:13:25;5.50;99.90
27978;DHT22;15314;49.248;6.968;2024-03-06T01:14:44;5.40;99.90
27978;DHT22;15314;49.248;6.968;2024-03-06T01:16:03;5.40;99.90
27978;DHT22;15314;49.248;6.968;2024-03-06T01:17:22;5.40;99.90
27978;DHT22;15314;49.248;6.968;2024-03-06T01:18:42;5.40;99.90
27978;DHT22;15314;49.248;6.968;2024-03-06T01:20:01;5.40;99.90
27978;DHT22;15314;49.248;6.968;2024-03-06T01:21:22;5.30;99.90
27978;DHT22;15314;49.248;6.968;2024-03-06T01:22:41;5.30;99.90
27978;DHT22;15314;49.248;6.968;2024-03-06T01:24:01;5.30;99.90
27978;DHT22;15314;49.248;6.968;2024-03-06T01:25:21;5.20;99.90
27978;DHT22;15314;49.248;6.968;2024-03-06T01:26:40;5.20;99.90
27978;DHT22;15314;49.248;6.968;2024-03-06T01:27:59;5.10;99.90
27978;DHT22;15314;49.248;6.968;2024-03-06T01:29:19;5.00;99.90
27978;DHT22;15314;49.248;6.968;2024-03-06T01:30:38;5.00;99.90
27978;DHT22;15314;49.248;6.968;2024-03-06T01:31:57;5.00;99.90
27978;DHT22;15314;49.248;6.968;2024-03-06T01:33:16;5.00;99.90
27978;DHT22;15314;49.248;6.968;2024-03-06T01:34:35;5.00;99.90
27978;DHT22;15314;49.248;6.968;2024-03-06T01:35:55;5.00;99.90
27978;DHT22;15314;49.248;6.968;2024-03-06T01:37:14;4.90;99.90
27978;DHT22;15314;49.248;6.968;2024-03-06T01:38:34;5.00;99.90
27978;DHT22;15314;49.248;6.968;2024-03-06T01:39:53;5.10;99.90
27978;DHT22;15314;49.248;6.968;2024-03-06T01:41:13;5.00;99.90
27978;DHT22;15314;49.248;6.968;2024-03-06T01:42:33;5.10;99.90
27978;DHT22;15314;49.248;6.968;2024-03-06T01:43:52;5.00;99.90
27978;DHT22;15314;49.248;6.968;2024-03-06T01:45:12;5.00;99.90
27978;DHT22;15314;49.248;6.968;2024-03-06T01:46:31;5.00;99.90
27978;DHT22;15314;49.248;6.968;2024-03-06T01:47:50;4.90;99.90
27978;DHT22;15314;49.248;6.968;2024-03-06T01:49:09;4.80;99.90
27978;DHT22;15314;49.248;6.968;2024-03-06T01:50:29;4.80;99.90
27978;DHT22;15314;49.248;6.968;2024-03-06T01:51:51;4.70;99.90
27978;DHT22;15314;49.248;6.968;2024-03-06T01:53:12;4.60;99.90
27978;DHT22;15314;49.248;6.968;2024-03-06T01:54:32;4.60;99.90
27978;DHT22;15314;49.248;6.968;2024-03-06T01:55:51;4.60;99.90
27978;DHT22;15314;49.248;6.968;2024-03-06T01:57:11;4.60;99.90
27978;DHT22;15314;49.248;6.968;2024-03-06T01:58:34;4.60;99.90
27978;DHT22;15314;49.248;6.968;2024-03-06T01:59:53;4.50;99.90
27978;DHT22;15314;49.248;6.968;2024-03-06T02:01:12;4.50;99.90
27978;DHT22;15314;49.248;6.968;2024-03-06T02:02:32;4.50;99.90
27978;DHT22;15314;49.248;6.968;2024-03-06T02:03:52;4.50;99.90
27978;DHT22;15314;49.248;6.968;2024-03-06T02:05:12;4.50;99.90
27978;DHT22;15314;49.248;6.968;2024-03-06T02:06:31;4.50;99.90
27978;DHT22;15314;49.248;6.968;2024-03-06T02:07:53;4.50;99.90
27978;DHT22;15314;49.248;6.968;2024-03-06T02:09:13;4.50;99.90
27978;DHT22;15314;49.248;6.968;2024-03-06T02:10:35;4.50;99.90
27978;DHT22;15314;49.248;6.968;2024-03-06T02:11:55;4.60;99.90
27978;DHT22;15314;49.248;6.968;2024-03-06T02:13:15;4.60;99.90
27978;DHT22;15314;49.248;6.968;2024-03-06T02:14:35;4.60;99.90
27978;DHT22;15314;49.248;6.968;2024-03-06T02:15:55;4.50;99.90
27978;DHT22;15314;49.248;6.968;2024-03-06T02:17:14;4.50;99.90
27978;DHT22;15314;49.248;6.968;2024-03-06T02:18:33;4.60;99.90
27978;DHT22;15314;49.248;6.968;2024-03-06T02:19:53;4.70;99.90
27978;DHT22;15314;49.248;6.968;2024-03-06T02:21:12;4.70;99.90
27978;DHT22;15314;49.248;6.968;2024-03-06T02:22:32;4.70;99.90
27978;DHT22;15314;49.248;6.968;2024-03-06T02:23:51;4.70;99.90
27978;DHT22;15314;49.248;6.968;2024-03-06T02:25:12;4.70;99.90
27978;DHT22;15314;49.248;6.968;2024-03-06T02:26:31;4.60;99.90
27978;DHT22;15314;49.248;6.968;2024-03-06T02:27:50;4.60;99.90
27978;DHT22;15314;49.248;6.968;2024-03-06T02:29:09;4.60;99.90
27978;DHT22;15314;49.248;6.968;2024-03-06T02:30:29;4.50;99.90
27978;DHT22;15314;49.248;6.968;2024-03-06T02:31:54;4.60;99.90
27978;DHT22;15314;49.248;6.968;2024-03-06T02:33:13;4.60;99.90
27978;DHT22;15314;49.248;6.968;2024-03-06T02:34:32;4.60;99.90
27978;DHT22;15314;49.248;6.968;2024-03-06T02:35:51;4.60;99.90
27978;DHT22;15314;49.248;6.968;2024-03-06T02:37:10;4.70;99.90
27978;DHT22;15314;49.248;6.968;2024-03-06T02:38:30;4.60;99.90
27978;DHT22;15314;49.248;6.968;2024-03-06T02:39:50;4.50;99.90
27978;DHT22;15314;49.248;6.968;2024-03-06T02:41:10;4.60;99.90
27978;DHT22;15314;49.248;6.968;2024-03-06T02:42:29;4.60;99.90
27978;DHT22;15314;49.248;6.968;2024-03-06T02:43:49;4.60;99.90
27978;DHT22;15314;49.248;6.968;2024-03-06T02:45:08;4.60;99.90
27978;DHT22;15314;49.248;6.968;2024-03-06T02:46:27;4.60;99.90
27978;DHT22;15314;49.248;6.968;2024-03-06T02:47:47;4.60;99.90
27978;DHT22;15314;49.248;6.968;2024-03-06T02:49:06;4.80;99.90
27978;DHT22;15314;49.248;6.968;2024-03-06T02:50:25;4.70;99.90
27978;DHT22;15314;49.248;6.968;2024-03-06T02:51:45;4.70;99.90
27978;DHT22;15314;49.248;6.968;2024-03-06T02:53:04;4.70;99.90
27978;DHT22;15314;49.248;6.968;2024-03-06T02:54:23;4.70;99.90
27978;DHT22;15314;49.248;6.968;2024-03-06T02:55:44;4.70;99.90
27978;DHT22;15314;49.248;6.968;2024-03-06T02:57:03;4.60;99.90
27978;DHT22;15314;49.248;6.968;2024-03-06T02:58:22;4.70;99.90
27978;DHT22;15314;49.248;6.968;2024-03-06T02:59:42;4.70;99.90
27978;DHT22;15314;49.248;6.968;2024-03-06T03:01:02;4.70;99.90
27978;DHT22;15314;49.248;6.968;2024-03-06T03:02:21;4.70;99.90
27978;DHT22;15314;49.248;6.968;2024-03-06T03:03:41;4.70;99.90
27978;DHT22;15314;49.248;6.968;2024-03-06T03:05:00;4.70;99.90
27978;DHT22;15314;49.248;6.968;2024-03-06T03:06:19;4.80;99.90
27978;DHT22;15314;49.248;6.968;2024-03-06T03:07:39;4.80;99.90
27978;DHT22;15314;49.248;6.968;2024-03-06T03:08:58;4.80;99.90
27978;DHT22;15314;49.248;6.968;2024-03-06T03:10:17;4.80;99.90
27978;DHT22;15314;49.248;6.968;2024-03-06T03:11:36;4.80;99.90
27978;DHT22;15314;49.248;6.968;2024-03-06T03:12:56;4.90;99.90
27978;DHT22;15314;49.248;6.968;2024-03-06T03:14:15;4.90;99.90
27978;DHT22;15314;49.248;6.968;2024-03-06T03:15:34;5.00;99.90
27978;DHT22;15314;49.248;6.968;2024-03-06T03:16:54;5.00;99.90
27978;DHT22;15314;49.248;6.968;2024-03-06T03:18:13;5.00;99.90
27978;DHT22;15314;49.248;6.968;2024-03-06T03:19:32;5.00;99.90
27978;DHT22;15314;49.248;6.968;2024-03-06T03:20:51;5.10;99.90
27978;DHT22;15314;49.248;6.968;2024-03-06T03:22:11;5.10;99.90
27978;DHT22;15314;49.248;6.968;2024-03-06T03:23:30;5.20;99.90
27978;DHT22;15314;49.248;6.968;2024-03-06T03:24:49;5.10;99.90
27978;DHT22;15314;49.248;6.968;2024-03-06T03:26:09;5.10;99.90
27978;DHT22;15314;49.248;6.968;2024-03-06T03:27:31;5.10;99.90
27978;DHT22;15314;49.248;6.968;2024-03-06T03:28:51;5.00;99.90
27978;DHT22;15314;49.248;6.968;2024-03-06T03:30:11;5.00;99.90
27978;DHT22;15314;49.248;6.968;2024-03-06T03:31:30;5.00;99.90
27978;DHT22;15314;49.248;6.968;2024-03-06T03:32:49;5.00;99.90
27978;DHT22;15314;49.248;6.968;2024-03-06T03:34:08;5.00;99.90
27978;DHT22;15314;49.248;6.968;2024-03-06T03:35:27;5.00;99.90
27978;DHT22;15314;49.248;6.968;2024-03-06T03:36:46;5.10;99.90
27978;DHT22;15314;49.248;6.968;2024-03-06T03:38:06;5.00;99.90
27978;DHT22;15314;49.248;6.968;2024-03-06T03:39:26;5.10;99.90
27978;DHT22;15314;49.248;6.968;2024-03-06T03:40:46;5.10;99.90
27978;DHT22;15314;49.248;6.968;2024-03-06T03:42:05;5.10;99.90
27978;DHT22;15314;49.248;6.968;2024-03-06T03:43:25;5.10;99.90
27978;DHT22;15314;49.248;6.968;2024-03-06T03:44:45;5.10;99.90
27978;DHT22;15314;49.248;6.968;2024-03-06T03:46:04;5.10;99.90
27978;DHT22;15314;49.248;6.968;2024-03-06T03:47:23;5.10;99.90
27978;DHT22;15314;49.248;6.968;2024-03-06T03:48:42;5.10;99.90
27978;DHT22;15314;49.248;6.968;2024-03-06T03:50:02;5.10;99.90
27978;DHT22;15314;49.248;6.968;2024-03-06T03:51:21;5.10;99.90
27978;DHT22;15314;49.248;6.968;2024-03-06T03:52:40;5.10;99.90
27978;DHT22;15314;49.248;6.968;2024-03-06T03:54:03;5.10;99.90
27978;DHT22;15314;49.248;6.968;2024-03-06T03:55:22;5.10;99.90
27978;DHT22;15314;49.248;6.968;2024-03-06T03:56:41;5.10;99.90
27978;DHT22;15314;49.248;6.968;2024-03-06T03:58:00;5.00;99.90
27978;DHT22;15314;49.248;6.968;2024-03-06T03:59:19;5.00;99.90
27978;DHT22;15314;49.248;6.968;2024-03-06T04:00:39;4.80;99.90
27978;DHT22;15314;49.248;6.968;2024-03-06T04:01:58;4.70;99.90
27978;DHT22;15314;49.248;6.968;2024-03-06T04:03:17;4.70;99.90
27978;DHT22;15314;49.248;6.968;2024-03-06T04:04:36;4.70;99.90
27978;DHT22;15314;49.248;6.968;2024-03-06T04:05:55;4.70;99.90
27978;DHT22;15314;49.248;6.968;2024-03-06T04:07:14;4.80;99.90
27978;DHT22;15314;49.248;6.968;2024-03-06T04:08:35;4.80;99.90
27978;DHT22;15314;49.248;6.968;2024-03-06T04:09:55;4.80;99.90
27978;DHT22;15314;49.248;6.968;2024-03-06T04:11:14;4.80;99.90
27978;DHT22;15314;49.248;6.968;2024-03-06T04:12:33;4.80;99.90
27978;DHT22;15314;49.248;6.968;2024-03-06T04:13:52;4.80;99.90
27978;DHT22;15314;49.248;6.968;2024-03-06T04:15:12;4.70;99.90
27978;DHT22;15314;49.248;6.968;2024-03-06T04:16:31;4.70;99.90
27978;DHT22;15314;49.248;6.968;2024-03-06T04:17:51;4.70;99.90
27978;DHT22;15314;49.248;6.968;2024-03-06T04:19:11;4.70;99.90
27978;DHT22;15314;49.248;6.968;2024-03-06T04:20:30;4.60;99.90
27978;DHT22;15314;49.248;6.968;2024-03-06T04:21:49;4.70;99.90
27978;DHT22;15314;49.248;6.968;2024-03-06T04:23:08;4.60;99.90
27978;DHT22;15314;49.248;6.968;2024-03-06T04:24:28;4.60;99.90
27978;DHT22;15314;49.248;6.968;2024-03-06T04:25:48;4.60;99.90
27978;DHT22;15314;49.248;6.968;2024-03-06T04:27:07;4.50;99.90
27978;DHT22;15314;49.248;6.968;2024-03-06T04:28:27;4.50;99.90
27978;DHT22;15314;49.248;6.968;2024-03-06T04:29:46;4.40;99.90
27978;DHT22;15314;49.248;6.968;2024-03-06T04:31:06;4.40;99.90
27978;DHT22;15314;49.248;6.968;2024-03-06T04:32:25;4.30;99.90
27978;DHT22;15314;49.248;6.968;2024-03-06T04:33:44;4.30;99.90
27978;DHT22;15314;49.248;6.968;2024-03-06T04:35:04;4.30;99.90
27978;DHT22;15314;49.248;6.968;2024-03-06T04:36:23;4.30;99.90
27978;DHT22;15314;49.248;6.968;2024-03-06T04:37:46;4.30;99.90
27978;DHT22;15314;49.248;6.968;2024-03-06T04:39:05;4.20;99.90
27978;DHT22;15314;49.248;6.968;2024-03-06T04:40:26;4.20;99.90
27978;DHT22;15314;49.248;6.968;2024-03-06T04:41:47;4.20;99.90
27978;DHT22;15314;49.248;6.968;2024-03-06T04:43:06;4.20;99.90
27978;DHT22;15314;49.248;6.968;2024-03-06T04:44:27;4.20;99.90
27978;DHT22;15314;49.248;6.968;2024-03-06T04:45:46;4.20;99.90
27978;DHT22;15314;49.248;6.968;2024-03-06T04:47:06;4.10;99.90
27978;DHT22;15314;49.248;6.968;2024-03-06T04:48:25;4.10;99.90
27978;DHT22;15314;49.248;6.968;2024-03-06T04:49:45;4.10;99.90
27978;DHT22;15314;49.248;6.968;2024-03-06T04:51:05;4.00;99.90
27978;DHT22;15314;49.248;6.968;2024-03-06T04:52:24;4.00;99.90
27978;DHT22;15314;49.248;6.968;2024-03-06T04:53:44;4.00;99.90
27978;DHT22;15314;49.248;6.968;2024-03-06T04:55:03;4.00;99.90
27978;DHT22;15314;49.248;6.968;2024-03-06T04:56:23;4.00;99.90
27978;DHT22;15314;49.248;6.968;2024-03-06T04:57:45;4.00;99.90
27978;DHT22;15314;49.248;6.968;2024-03-06T04:59:04;4.00;99.90
27978;DHT22;15314;49.248;6.968;2024-03-06T05:00:24;4.00;99.90
27978;DHT22;15314;49.248;6.968;2024-03-06T05:01:46;4.00;99.90
27978;DHT22;15314;49.248;6.968;2024-03-06T05:03:06;3.90;99.90
27978;DHT22;15314;49.248;6.968;2024-03-06T05:04:26;3.90;99.90
27978;DHT22;15314;49.248;6.968;2024-03-06T05:05:46;3.90;99.90
27978;DHT22;15314;49.248;6.968;2024-03-06T05:07:08;3.90;99.90
27978;DHT22;15314;49.248;6.968;2024-03-06T05:08:28;3.90;99.90
27978;DHT22;15314;49.248;6.968;2024-03-06T05:09:48;3.90;99.90
27978;DHT22;15314;49.248;6.968;2024-03-06T05:11:07;3.90;99.90
27978;DHT22;15314;49.248;6.968;2024-03-06T05:12:27;3.80;99.90
27978;DHT22;15314;49.248;6.968;2024-03-06T05:13:47;3.80;99.90
27978;DHT22;15314;49.248;6.968;2024-03-06T05:15:06;3.80;99.90
27978;DHT22;15314;49.248;6.968;2024-03-06T05:16:27;3.70;99.90
27978;DHT22;15314;49.248;6.968;2024-03-06T05:17:46;3.70;99.90
27978;DHT22;15314;49.248;6.968;2024-03-06T05:19:06;3.70;99.90
27978;DHT22;15314;49.248;6.968;2024-03-06T05:20:27;3.80;99.90
27978;DHT22;15314;49.248;6.968;2024-03-06T05:21:47;3.80;99.90
27978;DHT22;15314;49.248;6.968;2024-03-06T05:23:06;3.90;99.90
27978;DHT22;15314;49.248;6.968;2024-03-06T05:24:26;3.90;99.90
27978;DHT22;15314;49.248;6.968;2024-03-06T05:25:45;4.00;99.90
27978;DHT22;15314;49.248;6.968;2024-03-06T05:27:05;4.00;99.90
27978;DHT22;15314;49.248;6.968;2024-03-06T05:28:25;4.00;99.90
27978;DHT22;15314;49.248;6.968;2024-03-06T05:29:46;4.00;99.90
27978;DHT22;15314;49.248;6.968;2024-03-06T05:31:16;4.00;99.90
27978;DHT22;15314;49.248;6.968;2024-03-06T05:32:39;4.00;99.90
27978;DHT22;15314;49.248;6.968;2024-03-06T05:33:58;4.10;99.90
27978;DHT22;15314;49.248;6.968;2024-03-06T05:35:18;4.10;99.90
27978;DHT22;15314;49.248;6.968;2024-03-06T05:36:38;4.10;99.90
27978;DHT22;15314;49.248;6.968;2024-03-06T05:37:57;4.10;99.90
27978;DHT22;15314;49.248;6.968;2024-03-06T05:39:17;4.10;99.90
27978;DHT22;15314;49.248;6.968;2024-03-06T05:40:36;4.00;99.90
27978;DHT22;15314;49.248;6.968;2024-03-06T05:42:04;4.10;99.90
27978;DHT22;15314;49.248;6.968;2024-03-06T05:43:24;4.10;99.90
27978;DHT22;15314;49.248;6.968;2024-03-06T05:44:43;4.20;99.90
27978;DHT22;15314;49.248;6.968;2024-03-06T05:46:06;4.20;99.90
27978;DHT22;15314;49.248;6.968;2024-03-06T05:47:25;4.20;99.90
27978;DHT22;15314;49.248;6.968;2024-03-06T05:48:44;4.20;99.90
27978;DHT22;15314;49.248;6.968;2024-03-06T05:50:05;4.20;99.90
27978;DHT22;15314;49.248;6.968;2024-03-06T05:51:29;4.20;99.90
27978;DHT22;15314;49.248;6.968;2024-03-06T05:52:48;4.20;99.90
27978;DHT22;15314;49.248;6.968;2024-03-06T05:54:07;4.20;99.90
27978;DHT22;15314;49.248;6.968;2024-03-06T05:55:28;4.50;99.90
27978;DHT22;15314;49.248;6.968;2024-03-06T05:56:48;4.50;99.90
27978;DHT22;15314;49.248;6.968;2024-03-06T05:58:12;4.50;99.90
27978;DHT22;15314;49.248;6.968;2024-03-06T05:59:32;4.50;99.90
27978;DHT22;15314;49.248;6.968;2024-03-06T06:00:51;4.60;99.90
27978;DHT22;15314;49.248;6.968;2024-03-06T06:02:10;4.50;99.90
27978;DHT22;15314;49.248;6.968;2024-03-06T06:03:33;4.50;99.90
27978;DHT22;15314;49.248;6.968;2024-03-06T06:04:53;4.40;99.90
27978;DHT22;15314;49.248;6.968;2024-03-06T06:06:14;4.40;99.90
27978;DHT22;15314;49.248;6.968;2024-03-06T06:07:33;4.40;99.90
27978;DHT22;15314;49.248;6.968;2024-03-06T06:08:53;4.50;99.90
27978;DHT22;15314;49.248;6.968;2024-03-06T06:10:14;4.50;99.90
27978;DHT22;15314;49.248;6.968;2024-03-06T06:11:33;4.60;99.90
27978;DHT22;15314;49.248;6.968;2024-03-06T06:12:53;4.70;99.90
27978;DHT22;15314;49.248;6.968;2024-03-06T06:14:13;4.70;99.90
27978;DHT22;15314;49.248;6.968;2024-03-06T06:15:32;4.70;99.90
27978;DHT22;15314;49.248;6.968;2024-03-06T06:16:52;4.70;99.90
27978;DHT22;15314;49.248;6.968;2024-03-06T06:18:12;4.70;99.90
27978;DHT22;15314;49.248;6.968;2024-03-06T06:19:32;4.70;99.90
27978;DHT22;15314;49.248;6.968;2024-03-06T06:20:52;4.80;99.90
27978;DHT22;15314;49.248;6.968;2024-03-06T06:22:11;4.90;99.90
27978;DHT22;15314;49.248;6.968;2024-03-06T06:23:32;5.00;99.90
27978;DHT22;15314;49.248;6.968;2024-03-06T06:24:51;5.00;99.90
27978;DHT22;15314;49.248;6.968;2024-03-06T06:26:11;5.00;99.90
27978;DHT22;15314;49.248;6.968;2024-03-06T06:27:30;4.90;99.90
27978;DHT22;15314;49.248;6.968;2024-03-06T06:28:49;4.80;99.90
27978;DHT22;15314;49.248;6.968;2024-03-06T06:30:09;4.80;99.90
27978;DHT22;15314;49.248;6.968;2024-03-06T06:31:30;4.90;99.90
27978;DHT22;15314;49.248;6.968;2024-03-06T06:32:49;4.80;99.90
27978;DHT22;15314;49.248;6.968;2024-03-06T06:34:09;5.00;99.90
27978;DHT22;15314;49.248;6.968;2024-03-06T06:35:28;5.00;99.90
27978;DHT22;15314;49.248;6.968;2024-03-06T06:36:47;5.10;99.90
27978;DHT22;15314;49.248;6.968;2024-03-06T06:38:06;5.10;99.90
27978;DHT22;15314;49.248;6.968;2024-03-06T06:39:25;5.10;99.90
27978;DHT22;15314;49.248;6.968;2024-03-06T06:40:44;5.00;99.90
27978;DHT22;15314;49.248;6.968;2024-03-06T06:42:04;5.10;99.90
27978;DHT22;15314;49.248;6.968;2024-03-06T06:43:23;5.20;99.90
27978;DHT22;15314;49.248;6.968;2024-03-06T06:44:43;5.30;99.90
27978;DHT22;15314;49.248;6.968;2024-03-06T06:46:02;5.30;99.90
27978;DHT22;15314;49.248;6.968;2024-03-06T06:47:24;5.20;99.90
27978;DHT22;15314;49.248;6.968;2024-03-06T06:48:43;5.20;99.90
27978;DHT22;15314;49.248;6.968;2024-03-06T06:50:02;5.00;99.90
27978;DHT22;15314;49.248;6.968;2024-03-06T06:51:24;5.00;99.90
27978;DHT22;15314;49.248;6.968;2024-03-06T06:52:44;5.00;99.90
27978;DHT22;15314;49.248;6.968;2024-03-06T06:54:03;5.00;99.90
27978;DHT22;15314;49.248;6.968;2024-03-06T06:55:23;5.00;99.90
27978;DHT22;15314;49.248;6.968;2024-03-06T06:56:43;5.00;99.90
27978;DHT22;15314;49.248;6.968;2024-03-06T06:58:02;5.20;99.90
27978;DHT22;15314;49.248;6.968;2024-03-06T06:59:21;5.30;99.90
27978;DHT22;15314;49.248;6.968;2024-03-06T07:00:42;5.30;99.90
27978;DHT22;15314;49.248;6.968;2024-03-06T07:02:02;5.40;99.90
27978;DHT22;15314;49.248;6.968;2024-03-06T07:03:22;5.50;99.90
27978;DHT22;15314;49.248;6.968;2024-03-06T07:04:45;5.70;99.90
27978;DHT22;15314;49.248;6.968;2024-03-06T07:06:04;5.80;99.90
27978;DHT22;15314;49.248;6.968;2024-03-06T07:07:24;5.90;99.90
27978;DHT22;15314;49.248;6.968;2024-03-06T07:08:43;6.00;99.90
27978;DHT22;15314;49.248;6.968;2024-03-06T07:10:02;6.10;99.90
27978;DHT22;15314;49.248;6.968;2024-03-06T07:11:25;6.20;99.90
27978;DHT22;15314;49.248;6.968;2024-03-06T07:12:45;6.40;99.90
27978;DHT22;15314;49.248;6.968;2024-03-06T07:14:04;6.50;99.90
27978;DHT22;15314;49.248;6.968;2024-03-06T07:15:26;6.70;99.90
27978;DHT22;15314;49.248;6.968;2024-03-06T07:16:45;7.00;99.90
27978;DHT22;15314;49.248;6.968;2024-03-06T07:18:06;7.20;99.90
27978;DHT22;15314;49.248;6.968;2024-03-06T07:19:25;7.40;99.90
27978;DHT22;15314;49.248;6.968;2024-03-06T07:20:45;7.70;99.90
27978;DHT22;15314;49.248;6.968;2024-03-06T07:22:05;7.80;99.90
27978;DHT22;15314;49.248;6.968;2024-03-06T07:23:24;8.00;99.90
27978;DHT22;15314;49.248;6.968;2024-03-06T07:24:43;8.10;99.90
27978;DHT22;15314;49.248;6.968;2024-03-06T07:26:04;8.20;99.90
27978;DHT22;15314;49.248;6.968;2024-03-06T07:27:23;8.10;99.90
27978;DHT22;15314;49.248;6.968;2024-03-06T07:28:43;8.00;99.90
27978;DHT22;15314;49.248;6.968;2024-03-06T07:30:02;7.80;99.90
27978;DHT22;15314;49.248;6.968;2024-03-06T07:31:21;7.70;99.90
27978;DHT22;15314;49.248;6.968;2024-03-06T07:32:40;7.60;99.90
27978;DHT22;15314;49.248;6.968;2024-03-06T07:34:00;7.60;99.90
27978;DHT22;15314;49.248;6.968;2024-03-06T07:35:20;7.50;99.90
27978;DHT22;15314;49.248;6.968;2024-03-06T07:36:39;7.60;99.90
27978;DHT22;15314;49.248;6.968;2024-03-06T07:37:58;7.70;99.90
27978;DHT22;15314;49.248;6.968;2024-03-06T07:39:21;7.90;99.90
27978;DHT22;15314;49.248;6.968;2024-03-06T07:40:40;7.80;99.90
27978;DHT22;15314;49.248;6.968;2024-03-06T07:41:59;7.90;99.90
27978;DHT22;15314;49.248;6.968;2024-03-06T07:43:19;7.80;99.90
27978;DHT22;15314;49.248;6.968;2024-03-06T07:44:38;7.90;99.90
27978;DHT22;15314;49.248;6.968;2024-03-06T07:45:57;7.90;99.90
27978;DHT22;15314;49.248;6.968;2024-03-06T07:47:17;7.90;99.90
27978;DHT22;15314;49.248;6.968;2024-03-06T07:48:37;7.90;99.90
27978;DHT22;15314;49.248;6.968;2024-03-06T07:49:57;7.90;99.90
27978;DHT22;15314;49.248;6.968;2024-03-06T07:51:17;7.80;99.90
27978;DHT22;15314;49.248;6.968;2024-03-06T07:52:36;7.80;99.90
27978;DHT22;15314;49.248;6.968;2024-03-06T07:53:55;7.90;99.90
27978;DHT22;15314;49.248;6.968;2024-03-06T07:55:14;7.90;99.90
27978;DHT22;15314;49.248;6.968;2024-03-06T07:56:34;8.00;99.90
27978;DHT22;15314;49.248;6.968;2024-03-06T07:57:53;8.10;99.90
27978;DHT22;15314;49.248;6.968;2024-03-06T07:59:12;8.20;99.90
27978;DHT22;15314;49.248;6.968;2024-03-06T08:00:32;8.50;99.90
27978;DHT22;15314;49.248;6.968;2024-03-06T08:01:51;8.90;99.90
27978;DHT22;15314;49.248;6.968;2024-03-06T08:03:11;9.10;99.90
27978;DHT22;15314;49.248;6.968;2024-03-06T08:04:33;9.40;99.90
27978;DHT22;15314;49.248;6.968;2024-03-06T08:05:55;9.70;99.90
27978;DHT22;15314;49.248;6.968;2024-03-06T08:07:15;10.00;99.90
27978;DHT22;15314;49.248;6.968;2024-03-06T08:08:40;10.10;99.90
27978;DHT22;15314;49.248;6.968;2024-03-06T08:10:00;10.20;99.90
27978;DHT22;15314;49.248;6.968;2024-03-06T08:11:19;10.60;99.90
27978;DHT22;15314;49.248;6.968;2024-03-06T08:12:41;11.10;99.90
27978;DHT22;15314;49.248;6.968;2024-03-06T08:14:01;11.20;99.90
27978;DHT22;15314;49.248;6.968;2024-03-06T08:15:23;11.60;99.90
27978;DHT22;15314;49.248;6.968;2024-03-06T08:16:49;11.80;99.90
27978;DHT22;15314;49.248;6.968;2024-03-06T08:18:09;12.30;99.90
27978;DHT22;15314;49.248;6.968;2024-03-06T08:19:28;12.50;99.90
27978;DHT22;15314;49.248;6.968;2024-03-06T08:20:47;12.70;99.90
27978;DHT22;15314;49.248;6.968;2024-03-06T08:22:06;12.80;99.60
27978;DHT22;15314;49.248;6.968;2024-03-06T08:23:26;12.90;99.40
27978;DHT22;15314;49.248;6.968;2024-03-06T08:24:45;13.00;99.30
27978;DHT22;15314;49.248;6.968;2024-03-06T08:26:05;13.20;98.70
27978;DHT22;15314;49.248;6.968;2024-03-06T08:27:25;13.60;98.60
27978;DHT22;15314;49.248;6.968;2024-03-06T08:28:44;13.70;97.90
27978;DHT22;15314;49.248;6.968;2024-03-06T08:30:04;14.00;97.40
27978;DHT22;15314;49.248;6.968;2024-03-06T08:31:24;14.00;96.80